createdAt,value
2019-03-29T00:00:02.296Z,0.2
2019-03-29T00:00:14.092Z,0.2
2019-03-29T00:00:25.884Z,0.1
2019-03-29T00:00:37.688Z,0.1
2019-03-29T00:00:49.496Z,0.1
2019-03-29T00:01:01.334Z,0.2
2019-03-29T00:01:13.137Z,0.2
2019-03-29T00:01:24.989Z,0.2
2019-03-29T00:01:36.733Z,0.2
2019-03-29T00:01:48.525Z,0.1
2019-03-29T00:02:00.314Z,0.1
2019-03-29T00:02:12.119Z,0.2
2019-03-29T00:02:23.922Z,0.1
2019-03-29T00:02:35.723Z,0.1
2019-03-29T00:02:47.515Z,0.1
2019-03-29T00:02:59.316Z,2.3
2019-03-29T00:03:11.118Z,2.3
2019-03-29T00:03:22.909Z,0.2
2019-03-29T00:03:35.014Z,0.1
2019-03-29T00:03:46.506Z,0.1
2019-03-29T00:03:58.302Z,0.2
2019-03-29T00:04:10.105Z,0.3
2019-03-29T00:04:21.904Z,0.3
2019-03-29T00:04:33.702Z,0.1
2019-03-29T00:04:45.511Z,0.1
2019-03-29T00:04:58.302Z,0.2
2019-03-29T00:05:10.092Z,0.2
2019-03-29T00:05:21.881Z,0.2
2019-03-29T00:05:33.683Z,0.2
2019-03-29T00:05:45.491Z,0.3
2019-03-29T00:05:57.287Z,0.4
2019-03-29T00:06:09.146Z,0.2
2019-03-29T00:06:20.933Z,0.2
2019-03-29T00:06:32.751Z,0.2
2019-03-29T00:06:44.548Z,0.1
2019-03-29T00:06:56.356Z,0.1
2019-03-29T00:07:09.155Z,0.3
2019-03-29T00:07:20.957Z,0.4
2019-03-29T00:07:39.715Z,0.3
2019-03-29T00:07:46.477Z,0.2
2019-03-29T00:07:58.282Z,0.3
2019-03-29T00:08:10.075Z,0.3
2019-03-29T00:08:21.875Z,0.4
2019-03-29T00:08:33.678Z,0.3
2019-03-29T00:08:45.474Z,0.2
2019-03-29T00:08:57.277Z,0.1
2019-03-29T00:09:09.073Z,0.3
2019-03-29T00:09:20.867Z,0.2
2019-03-29T00:09:33.656Z,0.3
2019-03-29T00:09:45.463Z,0.1
2019-03-29T00:09:57.249Z,0.2
2019-03-29T00:10:09.034Z,0.2
2019-03-29T00:10:20.911Z,0.2
2019-03-29T00:10:32.632Z,0.1
2019-03-29T00:10:44.423Z,0.1
2019-03-29T00:10:56.204Z,0.1
2019-03-29T00:11:08.031Z,0.1
2019-03-29T00:11:20.825Z,0.1
2019-03-29T00:11:32.628Z,0.1
2019-03-29T00:11:44.446Z,0.1
2019-03-29T00:11:56.228Z,0.2
2019-03-29T00:12:08.020Z,0.2
2019-03-29T00:12:19.822Z,0.1
2019-03-29T00:12:31.616Z,0.1
2019-03-29T00:12:43.422Z,0.2
2019-03-29T00:12:55.225Z,0.1
2019-03-29T00:13:07.025Z,0.1
2019-03-29T00:13:19.813Z,0.1
2019-03-29T00:13:31.646Z,0.2
2019-03-29T00:13:43.445Z,0.1
2019-03-29T00:13:55.241Z,0.2
2019-03-29T00:14:07.038Z,0.2
2019-03-29T00:14:18.823Z,0.2
2019-03-29T00:14:30.607Z,0.2
2019-03-29T00:14:42.420Z,0.2
2019-03-29T00:14:54.204Z,0.1
2019-03-29T00:15:06.006Z,0.4
2019-03-29T00:15:17.800Z,0.4
2019-03-29T00:15:29.606Z,0.1
2019-03-29T00:15:41.403Z,0.1
2019-03-29T00:15:53.198Z,0.1
2019-03-29T00:16:04.999Z,0.1
2019-03-29T00:16:16.793Z,0.3
2019-03-29T00:16:28.599Z,0.3
2019-03-29T00:16:40.397Z,0.2
2019-03-29T00:16:52.186Z,0.2
2019-03-29T00:17:03.977Z,0.1
2019-03-29T00:17:15.785Z,0.1
2019-03-29T00:17:27.583Z,0.1
2019-03-29T00:17:39.376Z,0.1
2019-03-29T00:17:51.171Z,0.1
2019-03-29T00:18:02.962Z,0.2
2019-03-29T00:18:14.765Z,0.3
2019-03-29T00:18:26.563Z,0.2
2019-03-29T00:18:38.383Z,0.2
2019-03-29T00:18:50.182Z,0.2
2019-03-29T00:19:02.052Z,0.1
2019-03-29T00:19:13.780Z,0.1
2019-03-29T00:19:25.567Z,0.1
2019-03-29T00:19:37.350Z,0.3
2019-03-29T00:19:49.155Z,0.3
2019-03-29T00:20:00.947Z,0.2
2019-03-29T00:20:12.729Z,0.1
2019-03-29T00:20:25.520Z,0.1
2019-03-29T00:20:37.322Z,0.1
2019-03-29T00:20:49.127Z,0.3
2019-03-29T00:21:00.926Z,0.3
2019-03-29T00:21:13.138Z,0.4
2019-03-29T00:21:24.520Z,0.3
2019-03-29T00:21:36.321Z,0.2
2019-03-29T00:21:48.119Z,0.2
2019-03-29T00:21:59.900Z,0.1
2019-03-29T00:22:11.692Z,0
2019-03-29T00:22:23.485Z,0
2019-03-29T00:22:36.262Z,0.1
2019-03-29T00:22:48.064Z,0.2
2019-03-29T00:22:59.857Z,0.2
2019-03-29T00:23:11.650Z,0.4
2019-03-29T00:23:23.473Z,0.3
2019-03-29T00:23:35.268Z,0.2
2019-03-29T00:23:47.070Z,0.1
2019-03-29T00:24:06.402Z,0.2
2019-03-29T00:24:12.605Z,0.2
2019-03-29T00:24:24.395Z,0.1
2019-03-29T00:24:36.189Z,0.2
2019-03-29T00:24:47.992Z,0.2
2019-03-29T00:24:59.790Z,0.1
2019-03-29T00:25:12.575Z,0.1
2019-03-29T00:25:24.390Z,0.1
2019-03-29T00:25:36.151Z,0.2
2019-03-29T00:25:47.946Z,0.2
2019-03-29T00:25:59.741Z,0.1
2019-03-29T00:26:11.543Z,0.1
2019-03-29T00:26:29.819Z,0.1
2019-03-29T00:26:41.617Z,0.1
2019-03-29T00:26:53.451Z,0.1
2019-03-29T00:27:05.199Z,0.1
2019-03-29T00:27:16.990Z,0.2
2019-03-29T00:27:28.787Z,0.2
2019-03-29T00:27:40.586Z,0.2
2019-03-29T00:27:52.383Z,0.3
2019-03-29T00:28:04.188Z,0.4
2019-03-29T00:28:15.974Z,0.2
2019-03-29T00:28:27.792Z,0.1
2019-03-29T00:28:39.594Z,0.1
2019-03-29T00:28:51.397Z,0.1
2019-03-29T00:29:03.419Z,0.2
2019-03-29T00:29:14.982Z,0.2
2019-03-29T00:29:27.769Z,0.1
2019-03-29T00:29:39.559Z,0.1
2019-03-29T00:29:51.357Z,0.1
2019-03-29T00:30:03.150Z,0.2
2019-03-29T00:30:14.947Z,0.2
2019-03-29T00:30:26.776Z,0.2
2019-03-29T00:30:38.571Z,0.1
2019-03-29T00:30:50.370Z,0.1
2019-03-29T00:31:02.165Z,0.1
2019-03-29T00:31:14.169Z,0.1
2019-03-29T00:31:25.760Z,0.1
2019-03-29T00:31:37.563Z,0.1
2019-03-29T00:31:49.353Z,0.1
2019-03-29T00:32:01.153Z,0.1
2019-03-29T00:32:12.937Z,0.2
2019-03-29T00:32:24.740Z,0.2
2019-03-29T00:32:36.543Z,0.2
2019-03-29T00:32:48.342Z,0.1
2019-03-29T00:33:00.141Z,0.1
2019-03-29T00:33:11.953Z,0.1
2019-03-29T00:33:24.001Z,0
2019-03-29T00:33:35.539Z,0.1
2019-03-29T00:33:47.344Z,0.1
2019-03-29T00:33:59.191Z,0.1
2019-03-29T00:34:11.982Z,0.2
2019-03-29T00:34:23.781Z,0.2
2019-03-29T00:34:35.586Z,0.2
2019-03-29T00:34:47.381Z,0.2
2019-03-29T00:34:59.190Z,0.1
2019-03-29T00:35:10.984Z,0.5
2019-03-29T00:35:22.768Z,0.5
2019-03-29T00:35:34.561Z,0.5
2019-03-29T00:35:46.353Z,0.1
2019-03-29T00:35:58.154Z,0.2
2019-03-29T00:36:09.957Z,0.2
2019-03-29T00:36:21.751Z,0.2
2019-03-29T00:36:33.540Z,0.2
2019-03-29T00:36:45.344Z,0.8
2019-03-29T00:36:57.141Z,1.3
2019-03-29T00:37:08.938Z,0.9
2019-03-29T00:37:20.722Z,0.3
2019-03-29T00:37:32.519Z,0.4
2019-03-29T00:37:53.163Z,0.2
2019-03-29T00:37:58.048Z,0.2
2019-03-29T00:38:09.842Z,0.1
2019-03-29T00:38:22.340Z,0.1
2019-03-29T00:38:33.421Z,0.2
2019-03-29T00:38:46.216Z,0.2
2019-03-29T00:38:58.034Z,0.1
2019-03-29T00:39:09.830Z,0.1
2019-03-29T00:39:21.625Z,0.1
2019-03-29T00:39:33.449Z,0.1
2019-03-29T00:39:46.294Z,0.1
2019-03-29T00:39:58.093Z,0.1
2019-03-29T00:40:09.899Z,0.1
2019-03-29T00:40:21.695Z,0.1
2019-03-29T00:40:33.488Z,0.2
2019-03-29T00:40:45.283Z,0.2
2019-03-29T00:40:57.083Z,0.2
2019-03-29T00:41:08.881Z,0.2
2019-03-29T00:41:20.673Z,0.1
2019-03-29T00:41:32.487Z,0.1
2019-03-29T00:41:44.286Z,0.2
2019-03-29T00:41:56.093Z,0.4
2019-03-29T00:42:07.890Z,0.3
2019-03-29T00:42:19.675Z,0.2
2019-03-29T00:42:31.494Z,0.2
2019-03-29T00:42:43.358Z,0.1
2019-03-29T00:42:55.082Z,2.2
2019-03-29T00:43:06.886Z,2.2
2019-03-29T00:43:18.686Z,2.2
2019-03-29T00:43:30.486Z,0.2
2019-03-29T00:43:42.286Z,0.1
2019-03-29T00:43:54.088Z,0.1
2019-03-29T00:44:05.881Z,0.1
2019-03-29T00:44:17.683Z,0.1
2019-03-29T00:44:29.488Z,0.1
2019-03-29T00:44:41.337Z,0.1
2019-03-29T00:44:53.182Z,0.1
2019-03-29T00:45:04.943Z,0.2
2019-03-29T00:45:16.733Z,0.4
2019-03-29T00:45:28.533Z,0.3
2019-03-29T00:45:40.328Z,0.1
2019-03-29T00:45:52.119Z,0.1
2019-03-29T00:46:03.921Z,0.1
2019-03-29T00:46:15.718Z,0.1
2019-03-29T00:46:27.507Z,0.1
2019-03-29T00:46:39.300Z,0.1
2019-03-29T00:46:51.097Z,0.2
2019-03-29T00:47:03.342Z,0.5
2019-03-29T00:47:14.677Z,0.5
2019-03-29T00:47:26.508Z,0.4
2019-03-29T00:47:38.269Z,0.1
2019-03-29T00:47:50.071Z,0.1
2019-03-29T00:48:01.859Z,0.1
2019-03-29T00:48:13.658Z,0.4
2019-03-29T00:48:25.460Z,0.6
2019-03-29T00:48:37.249Z,0.6
2019-03-29T00:48:49.029Z,0.1
2019-03-29T00:49:00.832Z,0.1
2019-03-29T00:49:12.631Z,0.3
2019-03-29T00:49:24.439Z,0.3
2019-03-29T00:49:36.230Z,0.2
2019-03-29T00:49:48.052Z,0.1
2019-03-29T00:49:59.847Z,0.1
2019-03-29T00:50:11.635Z,0.2
2019-03-29T00:50:23.491Z,0.2
2019-03-29T00:50:35.282Z,0.2
2019-03-29T00:50:47.080Z,0.2
2019-03-29T00:50:59.085Z,0.1
2019-03-29T00:51:10.670Z,0.1
2019-03-29T00:51:22.469Z,0.1
2019-03-29T00:51:34.258Z,0.2
2019-03-29T00:51:46.052Z,0.3
2019-03-29T00:51:57.847Z,0.3
2019-03-29T00:52:09.649Z,0.2
2019-03-29T00:52:21.444Z,0.1
2019-03-29T00:52:33.241Z,0.1
2019-03-29T00:52:45.041Z,0.1
2019-03-29T00:52:56.838Z,0.1
2019-03-29T00:53:09.096Z,0.1
2019-03-29T00:53:20.432Z,0.1
2019-03-29T00:53:32.235Z,0.1
2019-03-29T00:53:44.044Z,0.2
2019-03-29T00:53:55.838Z,0.1
2019-03-29T00:54:07.639Z,0.1
2019-03-29T00:54:19.436Z,0.1
2019-03-29T00:54:31.224Z,0.2
2019-03-29T00:54:43.026Z,0.1
2019-03-29T00:54:54.868Z,0.2
2019-03-29T00:55:06.617Z,0.3
2019-03-29T00:55:18.418Z,0.4
2019-03-29T00:55:30.255Z,0.5
2019-03-29T00:55:42.048Z,0.3
2019-03-29T00:55:53.849Z,0.3
2019-03-29T00:56:05.641Z,0.2
2019-03-29T00:56:18.428Z,0.1
2019-03-29T00:56:30.222Z,0.1
2019-03-29T00:56:42.014Z,0.1
2019-03-29T00:56:53.872Z,0.1
2019-03-29T00:57:05.652Z,0.1
2019-03-29T00:57:17.442Z,0.1
2019-03-29T00:57:29.240Z,0.1
2019-03-29T00:57:41.039Z,0.2
2019-03-29T00:57:52.842Z,0.1
2019-03-29T00:58:04.635Z,0.1
2019-03-29T00:58:16.441Z,0.1
2019-03-29T00:58:28.241Z,0.1
2019-03-29T00:58:40.036Z,0.1
2019-03-29T00:58:51.823Z,0.2
2019-03-29T00:59:03.619Z,0.2
2019-03-29T00:59:15.438Z,0.1
2019-03-29T00:59:27.240Z,0.1
2019-03-29T00:59:39.026Z,0.1
2019-03-29T00:59:50.822Z,0.1
2019-03-29T01:00:02.612Z,0.2
2019-03-29T01:00:14.415Z,0.4
2019-03-29T01:00:26.204Z,0.2
2019-03-29T01:00:38.997Z,0.4
2019-03-29T01:00:50.781Z,0.4
2019-03-29T01:01:02.578Z,0.4
2019-03-29T01:01:14.377Z,0.3
2019-03-29T01:01:26.367Z,0.1
2019-03-29T01:01:37.963Z,0.1
2019-03-29T01:01:49.769Z,0.2
2019-03-29T01:02:01.566Z,0.2
2019-03-29T01:02:13.403Z,0.2
2019-03-29T01:02:25.186Z,0.2
2019-03-29T01:02:36.996Z,0.1
2019-03-29T01:02:49.790Z,0.1
2019-03-29T01:03:01.589Z,0.1
2019-03-29T01:03:13.379Z,0.2
2019-03-29T01:03:25.184Z,0.2
2019-03-29T01:03:37.092Z,0.1
2019-03-29T01:03:48.775Z,0.1
2019-03-29T01:04:00.561Z,0.3
2019-03-29T01:04:12.348Z,0.4
2019-03-29T01:04:24.148Z,0.4
2019-03-29T01:04:35.941Z,0.1
2019-03-29T01:04:47.740Z,0.1
2019-03-29T01:04:59.542Z,0.1
2019-03-29T01:05:11.340Z,0.1
2019-03-29T01:05:23.143Z,0.2
2019-03-29T01:05:34.940Z,0.6
2019-03-29T01:05:47.000Z,0.6
2019-03-29T01:05:58.592Z,0.1
2019-03-29T01:06:10.329Z,0.1
2019-03-29T01:06:22.120Z,0.1
2019-03-29T01:06:33.914Z,0.1
2019-03-29T01:06:45.705Z,0.2
2019-03-29T01:06:57.526Z,0.2
2019-03-29T01:07:10.318Z,0.3
2019-03-29T01:07:22.123Z,0.2
2019-03-29T01:07:33.937Z,0.3
2019-03-29T01:07:45.741Z,0.3
2019-03-29T01:08:07.433Z,0.4
2019-03-29T01:08:10.762Z,0.3
2019-03-29T01:08:22.075Z,0.1
2019-03-29T01:08:33.879Z,0.2
2019-03-29T01:08:45.671Z,0.2
2019-03-29T01:08:57.476Z,1.3
2019-03-29T01:09:10.272Z,1.2
2019-03-29T01:09:22.070Z,1.2
2019-03-29T01:09:33.857Z,0.2
2019-03-29T01:09:45.644Z,0.1
2019-03-29T01:09:57.442Z,0.1
2019-03-29T01:10:09.239Z,0.2
2019-03-29T01:10:21.046Z,0.2
2019-03-29T01:10:32.848Z,0.2
2019-03-29T01:10:44.644Z,0.1
2019-03-29T01:10:56.443Z,0.1
2019-03-29T01:11:08.233Z,0.2
2019-03-29T01:11:20.030Z,0.2
2019-03-29T01:11:31.843Z,0.3
2019-03-29T01:11:43.642Z,0.3
2019-03-29T01:11:55.439Z,0.3
2019-03-29T01:12:07.241Z,0.3
2019-03-29T01:12:19.032Z,0.3
2019-03-29T01:12:30.870Z,0.3
2019-03-29T01:12:42.667Z,0.2
2019-03-29T01:12:54.470Z,0.2
2019-03-29T01:13:06.267Z,0.1
2019-03-29T01:13:18.060Z,0.1
2019-03-29T01:13:29.851Z,0.2
2019-03-29T01:13:41.662Z,0.2
2019-03-29T01:13:53.460Z,0.2
2019-03-29T01:14:05.260Z,0.1
2019-03-29T01:14:17.133Z,0.1
2019-03-29T01:14:28.849Z,0.1
2019-03-29T01:14:40.643Z,0.2
2019-03-29T01:14:52.452Z,0.2
2019-03-29T01:15:04.247Z,0.1
2019-03-29T01:15:16.042Z,0.1
2019-03-29T01:15:27.857Z,0.1
2019-03-29T01:15:39.652Z,0.2
2019-03-29T01:15:51.460Z,0.7
2019-03-29T01:16:03.278Z,0.7
2019-03-29T01:16:15.056Z,0.1
2019-03-29T01:16:27.159Z,0.1
2019-03-29T01:16:38.650Z,0.1
2019-03-29T01:16:50.446Z,0.4
2019-03-29T01:17:02.232Z,0.4
2019-03-29T01:17:14.030Z,0.3
2019-03-29T01:17:25.887Z,0.1
2019-03-29T01:17:37.681Z,0.1
2019-03-29T01:17:49.471Z,0.1
2019-03-29T01:18:01.267Z,0.1
2019-03-29T01:18:13.060Z,0.1
2019-03-29T01:18:24.849Z,0.1
2019-03-29T01:18:37.873Z,0.1
2019-03-29T01:18:48.444Z,0.1
2019-03-29T01:19:00.232Z,0.2
2019-03-29T01:19:12.024Z,0.6
2019-03-29T01:19:23.881Z,0.7
2019-03-29T01:19:35.676Z,0.3
2019-03-29T01:19:47.472Z,0.3
2019-03-29T01:19:59.265Z,0.4
2019-03-29T01:20:11.061Z,0.3
2019-03-29T01:20:22.859Z,0.2
2019-03-29T01:20:34.657Z,0.2
2019-03-29T01:20:46.444Z,0.1
2019-03-29T01:20:58.234Z,0.1
2019-03-29T01:21:10.039Z,0.2
2019-03-29T01:21:21.829Z,0.2
2019-03-29T01:21:33.636Z,0.1
2019-03-29T01:21:45.434Z,0.1
2019-03-29T01:21:57.228Z,0.2
2019-03-29T01:22:09.021Z,0.3
2019-03-29T01:22:20.822Z,0.4
2019-03-29T01:22:32.621Z,0.5
2019-03-29T01:22:44.418Z,0.3
2019-03-29T01:22:56.226Z,0.4
2019-03-29T01:23:08.007Z,0.5
2019-03-29T01:23:19.802Z,0.5
2019-03-29T01:23:31.601Z,0.3
2019-03-29T01:23:43.401Z,0.2
2019-03-29T01:23:55.197Z,0.1
2019-03-29T01:24:06.996Z,0.2
2019-03-29T01:24:18.807Z,0.2
2019-03-29T01:24:30.606Z,0.2
2019-03-29T01:24:42.396Z,0.2
2019-03-29T01:24:54.192Z,0.1
2019-03-29T01:25:05.987Z,0.1
2019-03-29T01:25:17.790Z,0.2
2019-03-29T01:25:29.589Z,0.2
2019-03-29T01:25:41.374Z,0.1
2019-03-29T01:25:53.171Z,0.3
2019-03-29T01:26:05.962Z,0.3
2019-03-29T01:26:17.764Z,0.3
2019-03-29T01:26:29.561Z,0.1
2019-03-29T01:26:42.356Z,0.2
2019-03-29T01:26:54.145Z,0.1
2019-03-29T01:27:05.948Z,0.1
2019-03-29T01:27:19.041Z,0.1
2019-03-29T01:27:29.529Z,0.3
2019-03-29T01:27:41.321Z,0.3
2019-03-29T01:27:53.124Z,0.3
2019-03-29T01:28:04.924Z,0.1
2019-03-29T01:28:17.723Z,0.2
2019-03-29T01:28:29.519Z,0.2
2019-03-29T01:28:41.338Z,0.2
2019-03-29T01:28:53.140Z,0.1
2019-03-29T01:29:04.981Z,0.1
2019-03-29T01:29:16.794Z,0.5
2019-03-29T01:29:30.337Z,0.5
2019-03-29T01:29:41.379Z,0.1
2019-03-29T01:29:53.177Z,0.1
2019-03-29T01:30:04.975Z,0.1
2019-03-29T01:30:16.779Z,0.2
2019-03-29T01:30:28.579Z,0.2
2019-03-29T01:30:40.360Z,0.2
2019-03-29T01:30:52.132Z,0.2
2019-03-29T01:31:03.939Z,0.2
2019-03-29T01:31:15.723Z,0.2
2019-03-29T01:31:27.515Z,0.2
2019-03-29T01:31:40.945Z,0.1
2019-03-29T01:31:52.099Z,0.1
2019-03-29T01:32:03.900Z,0.1
2019-03-29T01:32:15.696Z,0.1
2019-03-29T01:32:27.491Z,0.1
2019-03-29T01:32:39.293Z,0.2
2019-03-29T01:32:51.093Z,0.2
2019-03-29T01:33:02.878Z,0.3
2019-03-29T01:33:14.678Z,0.3
2019-03-29T01:33:26.485Z,0.3
2019-03-29T01:33:38.275Z,0.2
2019-03-29T01:33:50.349Z,0.1
2019-03-29T01:34:01.873Z,0.1
2019-03-29T01:34:13.690Z,0.2
2019-03-29T01:34:25.503Z,0.6
2019-03-29T01:34:37.302Z,0.6
2019-03-29T01:34:49.091Z,0.1
2019-03-29T01:35:00.879Z,0.2
2019-03-29T01:35:12.664Z,0.2
2019-03-29T01:35:24.454Z,0.2
2019-03-29T01:35:36.345Z,0.2
2019-03-29T01:35:48.034Z,0.3
2019-03-29T01:35:59.825Z,0.5
2019-03-29T01:36:11.623Z,0.4
2019-03-29T01:36:23.450Z,0.3
2019-03-29T01:36:35.202Z,0.3
2019-03-29T01:36:46.995Z,0.4
2019-03-29T01:36:58.791Z,0.2
2019-03-29T01:37:10.586Z,0.2
2019-03-29T01:37:22.379Z,0.2
2019-03-29T01:37:34.177Z,0.2
2019-03-29T01:37:46.113Z,0.3
2019-03-29T01:37:57.780Z,0.3
2019-03-29T01:38:21.017Z,0.1
2019-03-29T01:38:24.046Z,0.1
2019-03-29T01:38:34.105Z,0.1
2019-03-29T01:38:45.905Z,0.3
2019-03-29T01:38:57.695Z,0.3
2019-03-29T01:39:09.492Z,0.2
2019-03-29T01:39:22.310Z,0.2
2019-03-29T01:39:34.110Z,0.3
2019-03-29T01:39:45.890Z,0.2
2019-03-29T01:39:57.681Z,0.2
2019-03-29T01:40:09.481Z,0.2
2019-03-29T01:40:21.279Z,0.2
2019-03-29T01:40:33.085Z,0.4
2019-03-29T01:40:44.881Z,0.5
2019-03-29T01:40:56.685Z,0.4
2019-03-29T01:41:08.482Z,0.1
2019-03-29T01:41:21.305Z,0.1
2019-03-29T01:41:33.092Z,0.2
2019-03-29T01:41:44.889Z,0.2
2019-03-29T01:41:56.687Z,0.3
2019-03-29T01:42:08.490Z,0.4
2019-03-29T01:42:20.284Z,0.3
2019-03-29T01:42:32.090Z,0.3
2019-03-29T01:42:44.851Z,0.4
2019-03-29T01:42:55.680Z,0.3
2019-03-29T01:43:07.471Z,0.3
2019-03-29T01:43:19.265Z,0.1
2019-03-29T01:43:31.057Z,0.3
2019-03-29T01:43:42.856Z,0.3
2019-03-29T01:43:54.649Z,0.3
2019-03-29T01:44:07.439Z,0.2
2019-03-29T01:44:19.234Z,0.2
2019-03-29T01:44:31.023Z,0.3
2019-03-29T01:44:42.818Z,0.3
2019-03-29T01:44:54.611Z,0.3
2019-03-29T01:45:06.399Z,0.1
2019-03-29T01:45:18.189Z,0.1
2019-03-29T01:45:29.984Z,0.1
2019-03-29T01:45:41.795Z,0.2
2019-03-29T01:45:53.576Z,0.2
2019-03-29T01:46:05.378Z,0.1
2019-03-29T01:46:17.172Z,0.1
2019-03-29T01:46:28.989Z,0.2
2019-03-29T01:46:40.778Z,0.2
2019-03-29T01:46:52.574Z,0.3
2019-03-29T01:47:04.381Z,0.3
2019-03-29T01:47:16.178Z,0.2
2019-03-29T01:47:27.979Z,0.4
2019-03-29T01:47:39.779Z,0.4
2019-03-29T01:47:51.579Z,0.3
2019-03-29T01:48:03.377Z,0.2
2019-03-29T01:48:15.174Z,0.2
2019-03-29T01:48:27.963Z,0.2
2019-03-29T01:48:39.765Z,0.2
2019-03-29T01:48:51.558Z,0.2
2019-03-29T01:49:03.349Z,0.2
2019-03-29T01:49:15.307Z,0.3
2019-03-29T01:49:26.940Z,0.4
2019-03-29T01:49:38.741Z,0.2
2019-03-29T01:49:50.528Z,0.2
2019-03-29T01:50:02.331Z,0.1
2019-03-29T01:50:14.147Z,0.3
2019-03-29T01:50:25.946Z,0.4
2019-03-29T01:50:37.733Z,0.2
2019-03-29T01:50:49.528Z,0.3
2019-03-29T01:51:02.022Z,0.2
2019-03-29T01:51:13.129Z,0.2
2019-03-29T01:51:24.966Z,0.2
2019-03-29T01:51:36.761Z,0.2
2019-03-29T01:51:48.551Z,0.3
2019-03-29T01:52:00.350Z,0.2
2019-03-29T01:52:12.146Z,0.2
2019-03-29T01:52:24.931Z,0.2
2019-03-29T01:52:36.717Z,0.3
2019-03-29T01:52:48.530Z,0.4
2019-03-29T01:53:00.318Z,0.6
2019-03-29T01:53:12.244Z,0.2
2019-03-29T01:53:23.924Z,0.1
2019-03-29T01:53:35.728Z,0.3
2019-03-29T01:53:47.524Z,0.4
2019-03-29T01:53:59.324Z,0.3
2019-03-29T01:54:11.131Z,0.2
2019-03-29T01:54:22.951Z,0.3
2019-03-29T01:54:34.728Z,0.3
2019-03-29T01:54:46.520Z,0.1
2019-03-29T01:54:58.319Z,0.2
2019-03-29T01:55:10.126Z,0.2
2019-03-29T01:55:22.369Z,0.3
2019-03-29T01:55:33.726Z,0.3
2019-03-29T01:55:45.520Z,0.2
2019-03-29T01:55:57.314Z,0.2
2019-03-29T01:56:09.112Z,0.2
2019-03-29T01:56:20.909Z,0.3
2019-03-29T01:56:32.729Z,0.2
2019-03-29T01:56:44.527Z,0.1
2019-03-29T01:56:56.311Z,0.1
2019-03-29T01:57:08.113Z,0.2
2019-03-29T01:57:19.942Z,0.3
2019-03-29T01:57:32.235Z,0.4
2019-03-29T01:57:43.523Z,0.3
2019-03-29T01:57:55.319Z,0.3
2019-03-29T01:58:07.107Z,0.2
2019-03-29T01:58:18.904Z,0.2
2019-03-29T01:58:30.692Z,0.2
2019-03-29T01:58:42.488Z,0.2
2019-03-29T01:58:54.280Z,0.2
2019-03-29T01:59:06.079Z,0.1
2019-03-29T01:59:17.873Z,0.2
2019-03-29T01:59:29.669Z,0.2
2019-03-29T01:59:42.293Z,0.1
2019-03-29T01:59:54.272Z,0.1
2019-03-29T02:00:06.074Z,0.2
2019-03-29T02:00:17.860Z,0.2
2019-03-29T02:00:29.659Z,0.2
2019-03-29T02:00:41.462Z,0.2
2019-03-29T02:00:53.254Z,0.2
2019-03-29T02:01:05.049Z,0.1
2019-03-29T02:01:16.836Z,0.1
2019-03-29T02:01:29.085Z,0.1
2019-03-29T02:01:40.422Z,0.2
2019-03-29T02:01:52.214Z,0.3
2019-03-29T02:02:04.019Z,0.1
2019-03-29T02:02:15.847Z,0.1
2019-03-29T02:02:27.646Z,0.1
2019-03-29T02:02:39.495Z,0.1
2019-03-29T02:02:52.280Z,0.1
2019-03-29T02:03:04.069Z,0.1
2019-03-29T02:03:15.865Z,0.3
2019-03-29T02:03:27.664Z,0.4
2019-03-29T02:03:39.955Z,0.3
2019-03-29T02:03:51.261Z,0.2
2019-03-29T02:04:05.752Z,0.4
2019-03-29T02:04:14.834Z,0.4
2019-03-29T02:04:26.630Z,0.3
2019-03-29T02:04:38.415Z,0.2
2019-03-29T02:04:50.208Z,0.1
2019-03-29T02:05:01.996Z,0.1
2019-03-29T02:05:14.786Z,0.1
2019-03-29T02:05:27.678Z,0.1
2019-03-29T02:05:38.369Z,0.1
2019-03-29T02:05:50.164Z,0.1
2019-03-29T02:06:01.955Z,0.2
2019-03-29T02:06:13.757Z,0.2
2019-03-29T02:06:25.549Z,0.3
2019-03-29T02:06:38.345Z,0.2
2019-03-29T02:06:51.135Z,0.3
2019-03-29T02:07:02.934Z,0.3
2019-03-29T02:07:14.733Z,0.2
2019-03-29T02:07:26.526Z,0.1
2019-03-29T02:07:38.440Z,0.1
2019-03-29T02:07:50.174Z,0.2
2019-03-29T02:08:01.975Z,0.3
2019-03-29T02:08:13.773Z,0.3
2019-03-29T02:08:35.402Z,0.2
2019-03-29T02:08:38.299Z,0.2
2019-03-29T02:08:50.089Z,0.1
2019-03-29T02:09:01.889Z,0.1
2019-03-29T02:09:13.677Z,0.1
2019-03-29T02:09:25.477Z,0.1
2019-03-29T02:09:37.261Z,0.2
2019-03-29T02:09:49.053Z,0.2
2019-03-29T02:10:01.838Z,0.1
2019-03-29T02:10:13.629Z,0.3
2019-03-29T02:10:25.433Z,0.4
2019-03-29T02:10:37.231Z,0.3
2019-03-29T02:10:49.238Z,0.2
2019-03-29T02:11:01.824Z,0.4
2019-03-29T02:11:14.221Z,0.5
2019-03-29T02:11:25.416Z,0.4
2019-03-29T02:11:37.208Z,0.2
2019-03-29T02:11:49.002Z,0.1
2019-03-29T02:12:00.791Z,0.3
2019-03-29T02:12:12.585Z,0.2
2019-03-29T02:12:24.379Z,0.2
2019-03-29T02:12:36.182Z,0.3
2019-03-29T02:12:48.015Z,0.3
2019-03-29T02:12:59.882Z,0.3
2019-03-29T02:13:11.585Z,0.2
2019-03-29T02:13:23.382Z,0.2
2019-03-29T02:13:35.184Z,0.2
2019-03-29T02:13:47.004Z,0.3
2019-03-29T02:13:59.797Z,0.3
2019-03-29T02:14:11.591Z,0.1
2019-03-29T02:14:23.386Z,0.1
2019-03-29T02:14:35.185Z,0.1
2019-03-29T02:14:46.989Z,0.1
2019-03-29T02:14:58.786Z,0.1
2019-03-29T02:15:11.294Z,0.2
2019-03-29T02:15:23.352Z,0.2
2019-03-29T02:15:35.153Z,0.2
2019-03-29T02:15:46.951Z,0.2
2019-03-29T02:15:58.745Z,0.2
2019-03-29T02:16:10.549Z,0.2
2019-03-29T02:16:22.341Z,0.2
2019-03-29T02:16:35.135Z,0.1
2019-03-29T02:16:46.926Z,0.1
2019-03-29T02:16:58.744Z,0.1
2019-03-29T02:17:10.549Z,0.1
2019-03-29T02:17:22.345Z,0.3
2019-03-29T02:17:34.146Z,0.3
2019-03-29T02:17:45.948Z,0.2
2019-03-29T02:17:57.733Z,0.3
2019-03-29T02:18:09.535Z,0.3
2019-03-29T02:18:21.329Z,0.3
2019-03-29T02:18:33.130Z,0.3
2019-03-29T02:18:44.965Z,0.3
2019-03-29T02:18:56.751Z,0.3
2019-03-29T02:19:08.544Z,0.2
2019-03-29T02:19:20.409Z,0.3
2019-03-29T02:19:32.200Z,0.3
2019-03-29T02:19:43.952Z,0.3
2019-03-29T02:19:55.728Z,0.1
2019-03-29T02:20:07.522Z,0.1
2019-03-29T02:20:19.316Z,0.1
2019-03-29T02:20:31.111Z,0.2
2019-03-29T02:20:42.897Z,0.3
2019-03-29T02:20:54.691Z,0.3
2019-03-29T02:21:06.485Z,0.3
2019-03-29T02:21:18.279Z,0.2
2019-03-29T02:21:30.076Z,0.2
2019-03-29T02:21:42.932Z,0.2
2019-03-29T02:21:53.675Z,0.2
2019-03-29T02:22:05.478Z,0.2
2019-03-29T02:22:17.272Z,0.2
2019-03-29T02:22:29.075Z,0.2
2019-03-29T02:22:41.863Z,0.3
2019-03-29T02:22:53.663Z,0.4
2019-03-29T02:23:05.456Z,0.2
2019-03-29T02:23:17.256Z,0.1
2019-03-29T02:23:29.050Z,0.2
2019-03-29T02:23:40.875Z,0.2
2019-03-29T02:23:52.670Z,0.2
2019-03-29T02:24:04.466Z,0.2
2019-03-29T02:24:16.269Z,0.1
2019-03-29T02:24:29.046Z,0.1
2019-03-29T02:24:40.842Z,0.2
2019-03-29T02:24:52.645Z,0.2
2019-03-29T02:25:04.435Z,0.2
2019-03-29T02:25:16.411Z,0.2
2019-03-29T02:25:28.094Z,0.1
2019-03-29T02:25:39.882Z,0.4
2019-03-29T02:25:51.664Z,0.4
2019-03-29T02:26:03.461Z,0.2
2019-03-29T02:26:15.249Z,0.2
2019-03-29T02:26:27.051Z,0.1
2019-03-29T02:26:39.846Z,0.1
2019-03-29T02:26:51.642Z,0.1
2019-03-29T02:27:03.445Z,1.2
2019-03-29T02:27:15.238Z,1.2
2019-03-29T02:27:27.185Z,0.2
2019-03-29T02:27:38.855Z,0.1
2019-03-29T02:27:50.634Z,0.1
2019-03-29T02:28:02.436Z,0.1
2019-03-29T02:28:14.223Z,0.3
2019-03-29T02:28:26.018Z,0.5
2019-03-29T02:28:37.818Z,0.4
2019-03-29T02:28:49.623Z,0.2
2019-03-29T02:29:01.412Z,0.2
2019-03-29T02:29:13.207Z,0.2
2019-03-29T02:29:25.003Z,0.5
2019-03-29T02:29:36.944Z,1.3
2019-03-29T02:29:48.583Z,1.4
2019-03-29T02:30:00.574Z,0.3
2019-03-29T02:30:12.195Z,0.3
2019-03-29T02:30:23.994Z,0.3
2019-03-29T02:30:36.783Z,0.3
2019-03-29T02:30:48.603Z,0.2
2019-03-29T02:31:00.402Z,0.1
2019-03-29T02:31:12.191Z,0.4
2019-03-29T02:31:25.963Z,0.5
2019-03-29T02:31:35.770Z,0.4
2019-03-29T02:31:47.554Z,0.2
2019-03-29T02:31:59.343Z,0.2
2019-03-29T02:32:11.198Z,0.2
2019-03-29T02:32:24.797Z,0.2
2019-03-29T02:32:34.795Z,0.2
2019-03-29T02:32:46.583Z,0.3
2019-03-29T02:32:58.369Z,0.3
2019-03-29T02:33:10.162Z,0.2
2019-03-29T02:33:21.951Z,0.3
2019-03-29T02:33:33.748Z,0.3
2019-03-29T02:33:45.533Z,0.2
2019-03-29T02:33:57.320Z,0.2
2019-03-29T02:34:09.104Z,0.2
2019-03-29T02:34:20.886Z,0.2
2019-03-29T02:34:32.692Z,0.1
2019-03-29T02:34:44.475Z,0.1
2019-03-29T02:34:56.271Z,0.1
2019-03-29T02:35:08.078Z,0.2
2019-03-29T02:35:19.858Z,0.2
2019-03-29T02:35:31.663Z,0.2
2019-03-29T02:35:44.448Z,0.2
2019-03-29T02:35:56.250Z,0.1
2019-03-29T02:36:08.044Z,0.1
2019-03-29T02:36:19.837Z,0.2
2019-03-29T02:36:31.634Z,0.5
2019-03-29T02:36:43.420Z,0.5
2019-03-29T02:36:55.221Z,0.3
2019-03-29T02:37:08.003Z,0.2
2019-03-29T02:37:19.831Z,0.2
2019-03-29T02:37:31.629Z,0.2
2019-03-29T02:37:43.436Z,0.2
2019-03-29T02:37:56.345Z,0.2
2019-03-29T02:38:07.009Z,0.2
2019-03-29T02:38:18.793Z,0.5
2019-03-29T02:38:30.579Z,0.5
2019-03-29T02:38:54.643Z,0.5
2019-03-29T02:38:57.867Z,0.2
2019-03-29T02:39:07.867Z,0.2
2019-03-29T02:39:19.671Z,0.2
2019-03-29T02:39:32.460Z,0.2
2019-03-29T02:39:44.287Z,0.1
2019-03-29T02:39:56.071Z,0.1
2019-03-29T02:40:07.868Z,0.1
2019-03-29T02:40:19.660Z,0.1
2019-03-29T02:40:31.452Z,0.1
2019-03-29T02:40:43.253Z,0.1
2019-03-29T02:40:56.033Z,0.1
2019-03-29T02:41:07.832Z,0.1
2019-03-29T02:41:19.733Z,0.2
2019-03-29T02:41:31.417Z,0.3
2019-03-29T02:41:43.211Z,0.1
2019-03-29T02:41:55.008Z,0.2
2019-03-29T02:42:06.806Z,0.3
2019-03-29T02:42:19.589Z,0.4
2019-03-29T02:42:31.386Z,0.3
2019-03-29T02:42:43.351Z,0.5
2019-03-29T02:42:54.973Z,0.5
2019-03-29T02:43:06.770Z,0.5
2019-03-29T02:43:18.563Z,1.9
2019-03-29T02:43:30.408Z,2